createdAt,value
2017-04-06T00:00:24.953Z,99.99
2017-04-06T00:01:24.909Z,99.99
2017-04-06T00:02:24.938Z,99.99
2017-04-06T00:03:24.986Z,99.99
2017-04-06T00:04:24.986Z,99.99
2017-04-06T00:05:25.051Z,99.99
2017-04-06T00:06:25.050Z,99.99
2017-04-06T00:07:25.101Z,99.99
2017-04-06T00:08:25.109Z,99.99
2017-04-06T00:09:25.131Z,99.99
2017-04-06T00:10:25.164Z,99.99
2017-04-06T00:11:25.189Z,99.99
2017-04-06T00:12:25.207Z,99.99
2017-04-06T00:13:25.246Z,99.99
2017-04-06T00:14:25.309Z,99.99
2017-04-06T00:15:25.298Z,99.99
2017-04-06T00:16:25.336Z,99.99
2017-04-06T00:17:25.388Z,99.99
2017-04-06T00:18:25.386Z,99.99
2017-04-06T00:19:25.448Z,99.99
2017-04-06T00:20:25.446Z,99.99
2017-04-06T00:21:25.491Z,99.99
2017-04-06T00:22:25.502Z,99.99
2017-04-06T00:23:25.558Z,99.99
2017-04-06T00:24:25.562Z,99.99
2017-04-06T00:25:25.586Z,99.99
2017-04-06T00:26:25.607Z,99.99
2017-04-06T00:27:25.695Z,99.99
2017-04-06T00:28:25.687Z,99.99
2017-04-06T00:29:25.690Z,99.99
2017-04-06T00:30:25.736Z,99.99
2017-04-06T00:31:25.783Z,99.99
2017-04-06T00:32:25.839Z,99.99
2017-04-06T00:33:25.807Z,99.99
2017-04-06T00:34:25.839Z,99.99
2017-04-06T00:35:25.891Z,99.99
2017-04-06T00:36:25.882Z,99.99
2017-04-06T00:37:25.926Z,99.99
2017-04-06T00:38:25.942Z,99.99
2017-04-06T00:39:26.013Z,99.99
2017-04-06T00:40:25.998Z,99.99
2017-04-06T00:41:26.035Z,99.99
2017-04-06T00:42:26.095Z,99.99
2017-04-06T00:43:26.086Z,99.99
2017-04-06T00:44:26.143Z,99.99
2017-04-06T00:45:26.174Z,99.99
2017-04-06T00:46:26.203Z,99.99
2017-04-06T00:47:26.182Z,99.99
2017-04-06T00:48:26.226Z,99.99
2017-04-06T00:49:26.285Z,99.99
2017-04-06T00:50:26.284Z,99.99
2017-04-06T00:51:26.313Z,99.99
2017-04-06T00:52:26.329Z,99.99
2017-04-06T00:53:26.401Z,99.99
2017-04-06T00:54:26.382Z,99.99
2017-04-06T00:55:25.909Z,99.99
2017-04-06T00:56:25.935Z,99.99
2017-04-06T00:57:26.474Z,99.99
2017-04-06T00:58:26.480Z,99.99
2017-04-06T00:59:27.007Z,99.99
2017-04-06T01:00:27.516Z,99.99
2017-04-06T01:01:27.548Z,99.99
2017-04-06T01:02:27.604Z,99.99
2017-04-06T01:03:27.605Z,99.99
2017-04-06T01:04:28.151Z,99.99
2017-04-06T01:05:28.150Z,99.99
2017-04-06T01:06:28.203Z,99.99
2017-04-06T01:07:28.205Z,99.99
2017-04-06T01:08:28.257Z,99.99
2017-04-06T01:09:28.288Z,99.99
2017-04-06T01:10:28.281Z,99.99
2017-04-06T01:11:28.315Z,99.99
2017-04-06T01:12:28.807Z,99.99
2017-04-06T01:13:28.828Z,99.99
2017-04-06T01:14:28.850Z,99.99
2017-04-06T01:15:28.886Z,99.99
2017-04-06T01:16:28.913Z,99.99
2017-04-06T01:17:28.943Z,99.99
2017-04-06T01:18:29.473Z,99.99
2017-04-06T01:19:29.506Z,99.99
2017-04-06T01:20:30.005Z,99.99
2017-04-06T01:21:30.526Z,99.99
2017-04-06T01:22:31.091Z,99.99
2017-04-06T01:23:31.081Z,99.99
2017-04-06T01:24:31.587Z,99.99
2017-04-06T01:25:31.643Z,99.99
2017-04-06T01:26:31.668Z,99.99
2017-04-06T01:27:31.668Z,99.99
2017-04-06T01:28:31.684Z,99.99
2017-04-06T01:29:31.722Z,99.99
2017-04-06T01:30:32.232Z,99.99
2017-04-06T01:31:32.794Z,99.99
2017-04-06T01:32:32.780Z,99.99
2017-04-06T01:33:32.841Z,99.99
2017-04-06T01:34:32.838Z,99.99
2017-04-06T01:35:33.332Z,99.99
2017-04-06T01:36:33.851Z,99.99
2017-04-06T01:37:33.877Z,99.99
2017-04-06T01:38:33.901Z,99.99
2017-04-06T01:39:33.931Z,99.99
2017-04-06T01:40:33.924Z,99.99
2017-04-06T01:41:34.431Z,99.99
2017-04-06T01:42:34.950Z,99.99
2017-04-06T01:43:34.971Z,99.99
2017-04-06T01:44:35.001Z,99.99
2017-04-06T01:45:35.026Z,99.99
2017-04-06T01:46:35.081Z,99.99
2017-04-06T01:47:35.082Z,99.99
2017-04-06T01:48:35.099Z,99.99
2017-04-06T01:49:35.671Z,99.99
2017-04-06T01:50:35.696Z,99.99
2017-04-06T01:51:35.690Z,99.99
2017-04-06T01:52:35.725Z,99.99
2017-04-06T01:53:36.224Z,99.99
2017-04-06T01:54:36.753Z,99.99
2017-04-06T01:55:36.747Z,99.99
2017-04-06T01:56:37.319Z,99.99
2017-04-06T01:57:37.324Z,99.99
2017-04-06T01:58:37.381Z,99.99
2017-04-06T01:59:37.407Z,99.99
2017-04-06T02:00:37.439Z,99.99
2017-04-06T02:01:37.432Z,99.99
2017-04-06T02:02:37.491Z,99.99
2017-04-06T02:03:37.490Z,99.99
2017-04-06T02:04:37.548Z,99.99
2017-04-06T02:05:37.579Z,99.99
2017-04-06T02:06:37.608Z,99.99
2017-04-06T02:07:37.602Z,99.99
2017-04-06T02:08:37.661Z,99.99
2017-04-06T02:09:37.690Z,99.99
2017-04-06T02:10:37.716Z,99.99
2017-04-06T02:11:37.706Z,99.99
2017-04-06T02:12:37.745Z,99.99
2017-04-06T02:13:38.233Z,99.99
2017-04-06T02:14:38.763Z,99.99
2017-04-06T02:15:39.269Z,99.99
2017-04-06T02:16:39.802Z,99.99
2017-04-06T02:17:40.387Z,99.99
2017-04-06T02:18:40.405Z,99.99
2017-04-06T02:19:40.407Z,99.99
2017-04-06T02:20:40.905Z,99.99
2017-04-06T02:21:40.928Z,99.99
2017-04-06T02:22:40.979Z,99.99
2017-04-06T02:23:40.990Z,99.99
2017-04-06T02:24:41.002Z,99.99
2017-04-06T02:25:41.534Z,99.99
2017-04-06T02:26:41.563Z,99.99
2017-04-06T02:27:42.103Z,99.99
2017-04-06T02:28:42.099Z,99.99
2017-04-06T02:29:42.615Z,99.99
2017-04-06T02:30:42.602Z,99.99
2017-04-06T02:31:42.638Z,99.99
2017-04-06T02:32:42.693Z,99.99
2017-04-06T02:33:42.691Z,99.99
2017-04-06T02:34:42.718Z,99.99
2017-04-06T02:35:42.778Z,99.99
2017-04-06T02:36:42.777Z,99.99
2017-04-06T02:37:43.310Z,99.99
2017-04-06T02:38:43.304Z,99.99
2017-04-06T02:39:43.832Z,99.99
2017-04-06T02:40:43.849Z,99.99
2017-04-06T02:41:44.413Z,99.99
2017-04-06T02:42:44.462Z,99.99
2017-04-06T02:43:44.456Z,99.99
2017-04-06T02:44:44.482Z,99.99
2017-04-06T02:45:44.518Z,99.99
2017-04-06T02:46:44.572Z,99.99
2017-04-06T02:47:44.569Z,99.99
2017-04-06T02:48:45.092Z,99.99
2017-04-06T02:49:45.141Z,99.99
2017-04-06T02:50:45.145Z,99.99
2017-04-06T02:51:45.163Z,99.99
2017-04-06T02:52:45.201Z,99.99
2017-04-06T02:53:45.253Z,99.99
2017-04-06T02:54:45.258Z,99.99
2017-04-06T02:55:45.278Z,99.99
2017-04-06T02:56:45.303Z,99.99
2017-04-06T02:57:45.338Z,99.99
2017-04-06T02:58:45.885Z,99.99
2017-04-06T02:59:45.876Z,99.99
2017-04-06T03:00:45.932Z,99.99
2017-04-06T03:01:45.929Z,99.99
2017-04-06T03:02:46.462Z,99.99
2017-04-06T03:03:46.479Z,99.99
2017-04-06T03:04:47.038Z,99.99
2017-04-06T03:05:47.059Z,99.99
2017-04-06T03:06:47.558Z,99.99
2017-04-06T03:07:48.067Z,99.99
2017-04-06T03:08:48.095Z,99.99
2017-04-06T03:09:48.123Z,99.99
2017-04-06T03:10:48.177Z,99.99
2017-04-06T03:11:48.164Z,99.99
2017-04-06T03:12:48.207Z,99.99
2017-04-06T03:13:48.260Z,99.99
2017-04-06T03:14:48.281Z,99.99
2017-04-06T03:15:48.315Z,99.99
2017-04-06T03:16:48.307Z,99.99
2017-04-06T03:17:48.861Z,99.99
2017-04-06T03:18:48.917Z,99.99
2017-04-06T03:19:48.916Z,99.99
2017-04-06T03:20:49.444Z,99.99
2017-04-06T03:21:49.433Z,99.99
2017-04-06T03:22:49.463Z,99.99
2017-04-06T03:23:49.497Z,99.99
2017-04-06T03:24:50.029Z,99.99
2017-04-06T03:25:50.822Z,99.99
2017-04-06T03:26:50.818Z,99.99
2017-04-06T03:27:51.317Z,99.99
2017-04-06T03:28:51.845Z,99.99
2017-04-06T03:29:51.868Z,99.99
2017-04-06T03:30:51.865Z,99.99
2017-04-06T03:31:51.894Z,99.99
2017-04-06T03:32:51.924Z,99.99
2017-04-06T03:33:52.475Z,99.99
2017-04-06T03:34:52.461Z,99.99
2017-04-06T03:35:52.490Z,99.99
2017-04-06T03:36:52.549Z,99.99
2017-04-06T03:37:52.551Z,99.99
2017-04-06T03:38:53.080Z,99.99
2017-04-06T03:39:53.138Z,99.99
2017-04-06T03:40:53.136Z,99.99
2017-04-06T03:41:53.659Z,99.99
2017-04-06T03:42:53.713Z,99.99
2017-04-06T03:43:53.709Z,99.99
2017-04-06T03:44:53.736Z,99.99
2017-04-06T03:45:53.759Z,99.99
2017-04-06T03:46:53.795Z,99.99
2017-04-06T03:47:53.823Z,99.99
2017-04-06T03:48:53.846Z,99.99
2017-04-06T03:49:53.902Z,99.99
2017-04-06T03:50:53.901Z,99.99
2017-04-06T03:51:53.935Z,99.99
2017-04-06T03:52:54.511Z,99.99
2017-04-06T03:53:54.994Z,99.99
2017-04-06T03:54:55.021Z,99.99
2017-04-06T03:55:55.079Z,99.99
2017-04-06T03:56:55.109Z,99.99
2017-04-06T03:57:55.098Z,99.99
2017-04-06T03:58:55.595Z,99.99
2017-04-06T03:59:55.615Z,99.99
2017-04-06T04:00:55.660Z,99.99
2017-04-06T04:01:55.663Z,99.99
2017-04-06T04:02:56.185Z,99.99
2017-04-06T04:03:56.211Z,99.99
2017-04-06T04:04:56.783Z,99.99
2017-04-06T04:05:56.802Z,99.58
2017-04-06T04:06:56.805Z,99.99
2017-04-06T04:07:57.324Z,99.68
2017-04-06T04:08:57.877Z,99.11
2017-04-06T04:09:57.929Z,98.92
2017-04-06T04:10:57.927Z,98.92
2017-04-06T04:11:57.956Z,98.97
2017-04-06T04:12:57.984Z,98.97
2017-04-06T04:13:57.985Z,98.97
2017-04-06T04:14:58.008Z,98.49
2017-04-06T04:15:58.541Z,98.68
2017-04-06T04:16:58.560Z,98.3
2017-04-06T04:17:59.082Z,98.21
2017-04-06T04:18:59.586Z,97.92
2017-04-06T04:20:00.102Z,98.11
2017-04-06T04:21:00.099Z,97.83
2017-04-06T04:22:00.127Z,97.92
2017-04-06T04:23:00.180Z,98.21
2017-04-06T04:24:00.205Z,98.3
2017-04-06T04:25:00.207Z,98.02
2017-04-06T04:26:00.262Z,98.4
2017-04-06T04:27:00.264Z,98.3
2017-04-06T04:28:00.735Z,98.4
2017-04-06T04:29:00.781Z,98.4
2017-04-06T04:30:00.783Z,98.97
2017-04-06T04:31:00.813Z,98.49
2017-04-06T04:32:00.864Z,98.3
2017-04-06T04:33:00.885Z,98.54
2017-04-06T04:34:00.893Z,98.68
2017-04-06T04:35:01.443Z,98.44
2017-04-06T04:36:01.533Z,98.73
2017-04-06T04:37:01.493Z,99.58
2017-04-06T04:38:01.487Z,99.39
2017-04-06T04:39:01.546Z,99.77
2017-04-06T04:40:01.573Z,99.87
2017-04-06T04:41:01.657Z,99.99
2017-04-06T04:42:01.596Z,99.99
2017-04-06T04:43:01.627Z,99.99
2017-04-06T04:44:01.667Z,99.99
2017-04-06T04:45:01.711Z,99.99
2017-04-06T04:46:01.740Z,99.99
2017-04-06T04:47:01.765Z,99.99
2017-04-06T04:48:01.760Z,99.99
2017-04-06T04:49:02.303Z,99.99
2017-04-06T04:50:02.300Z,99.99
2017-04-06T04:51:02.354Z,99.99
2017-04-06T04:52:02.870Z,99.99
2017-04-06T04:53:02.890Z,99.99
2017-04-06T04:54:02.893Z,99.99
2017-04-06T04:55:02.949Z,99.99
2017-04-06T04:56:02.949Z,99.99
2017-04-06T04:57:03.004Z,99.99
2017-04-06T04:58:03.006Z,99.99
2017-04-06T04:59:03.037Z,99.99
2017-04-06T05:00:03.087Z,99.99
2017-04-06T05:01:03.114Z,99.99
2017-04-06T05:02:03.634Z,99.99
2017-04-06T05:03:03.647Z,99.99
2017-04-06T05:04:03.703Z,99.99
2017-04-06T05:05:03.699Z,99.99
2017-04-06T05:06:03.771Z,99.99
2017-04-06T05:07:03.755Z,99.99
2017-04-06T05:08:04.295Z,99.99
2017-04-06T05:09:04.353Z,99.99
2017-04-06T05:10:04.428Z,99.99
2017-04-06T05:11:04.400Z,99.99
2017-04-06T05:12:04.439Z,99.99
2017-04-06T05:13:04.441Z,99.99
2017-04-06T05:14:04.492Z,99.99
2017-04-06T05:15:04.556Z,99.99
2017-04-06T05:16:04.544Z,99.99
2017-04-06T05:17:04.569Z,99.99
2017-04-06T05:18:04.609Z,99.99
2017-04-06T05:19:04.622Z,99.99
2017-04-06T05:20:04.656Z,99.99
2017-04-06T05:21:04.709Z,99.99
2017-04-06T05:22:04.708Z,99.99
2017-04-06T05:23:04.704Z,99.99
2017-04-06T05:24:04.761Z,99.99
2017-04-06T05:25:04.947Z,99.99
2017-04-06T05:26:04.825Z,99.99
2017-04-06T05:27:04.821Z,99.99
2017-04-06T05:28:04.890Z,99.99
2017-04-06T05:29:04.912Z,99.99
2017-04-06T05:30:04.917Z,99.99
2017-04-06T05:31:04.963Z,99.99
2017-04-06T05:32:04.973Z,99.99
2017-04-06T05:33:05.014Z,99.99
2017-04-06T05:34:05.046Z,99.99
2017-04-06T05:35:05.069Z,99.99
2017-04-06T05:36:05.128Z,99.82
2017-04-06T05:37:05.130Z,99.82
2017-04-06T05:38:05.161Z,99.26
2017-04-06T05:39:05.161Z,98.3
2017-04-06T05:40:05.233Z,98.4
2017-04-06T05:41:05.213Z,97.92
2017-04-06T05:42:05.264Z,98.11
2017-04-06T05:43:05.298Z,97.55
2017-04-06T05:44:05.320Z,97.74
2017-04-06T05:45:05.372Z,97.36
2017-04-06T05:46:05.377Z,97.26
2017-04-06T05:47:05.380Z,97.55
2017-04-06T05:48:05.428Z,97.31
2017-04-06T05:49:05.451Z,95.27
2017-04-06T05:50:05.521Z,91.71
2017-04-06T05:51:05.517Z,90
2017-04-06T05:52:05.526Z,90.47
2017-04-06T05:53:05.572Z,91.04
2017-04-06T05:54:05.631Z,91.66
2017-04-06T05:55:05.635Z,93.08
2017-04-06T05:56:05.653Z,93.75
2017-04-06T05:57:05.686Z,92.37
2017-04-06T05:58:05.715Z,89.37
2017-04-06T05:59:05.718Z,86.66
2017-04-06T06:00:05.778Z,84.52
2017-04-06T06:01:05.785Z,82.65
2017-04-06T06:02:05.834Z,80.35
2017-04-06T06:03:05.889Z,76.77
2017-04-06T06:04:05.874Z,75.09
2017-04-06T06:05:05.929Z,73.69
2017-04-06T06:06:05.962Z,71.86
2017-04-06T06:07:05.977Z,68.84
2017-04-06T06:08:06.017Z,65.9
2017-04-06T06:09:06.019Z,65.17
2017-04-06T06:10:06.435Z,64.31
2017-04-06T06:11:06.086Z,63.26
2017-04-06T06:12:06.134Z,63.29
2017-04-06T06:13:06.215Z,63.06
2017-04-06T06:14:06.232Z,63.64
2017-04-06T06:15:06.258Z,63.26
2017-04-06T06:16:06.293Z,63.64
2017-04-06T06:17:06.303Z,63.51
2017-04-06T06:18:06.421Z,64.72
2017-04-06T06:19:06.366Z,66.99
2017-04-06T06:20:06.423Z,68.67
2017-04-06T06:21:06.465Z,69.87
2017-04-06T06:22:06.488Z,71.84
2017-04-06T06:23:06.485Z,72.28
2017-04-06T06:24:06.520Z,72.86
2017-04-06T06:25:06.587Z,71.81
2017-04-06T06:26:06.632Z,69.78
2017-04-06T06:27:06.624Z,67.62
2017-04-06T06:28:06.640Z,66.25
2017-04-06T06:29:06.687Z,65.58
2017-04-06T06:30:06.732Z,64.95
2017-04-06T06:31:06.745Z,63.26
2017-04-06T06:32:06.794Z,61.6
2017-04-06T06:33:06.845Z,60
2017-04-06T06:34:06.877Z,58.75
2017-04-06T06:35:07.216Z,59.68
2017-04-06T06:36:06.918Z,61.25
2017-04-06T06:37:06.922Z,63.23
2017-04-06T06:38:06.992Z,63.86
2017-04-06T06:39:07.012Z,63.42
2017-04-06T06:40:07.018Z,63.86
2017-04-06T06:41:07.047Z,65.74
2017-04-06T06:42:07.111Z,67.52
2017-04-06T06:43:07.141Z,69.11
2017-04-06T06:44:07.204Z,69.74
2017-04-06T06:45:07.559Z,68.63
2017-04-06T06:46:07.238Z,66.5
2017-04-06T06:47:07.273Z,65.01
2017-04-06T06:48:07.332Z,63.32
2017-04-06T06:49:07.339Z,61.47
2017-04-06T06:50:07.373Z,59.58
2017-04-06T06:51:07.434Z,58.27
2017-04-06T06:52:07.438Z,58.91
2017-04-06T06:53:07.484Z,60.03
2017-04-06T06:54:07.531Z,60.32
2017-04-06T06:55:07.697Z,61.44
2017-04-06T06:56:07.602Z,62.65
2017-04-06T06:57:07.578Z,64.88
2017-04-06T06:58:07.637Z,64.88
2017-04-06T06:59:07.686Z,64.02
2017-04-06T07:00:08.112Z,62.17
2017-04-06T07:01:07.835Z,61.28
2017-04-06T07:02:07.774Z,61.44
2017-04-06T07:03:07.813Z,61.82
2017-04-06T07:04:07.836Z,62.2
2017-04-06T07:05:07.846Z,62.4
2017-04-06T07:06:07.932Z,61.34
2017-04-06T07:07:07.970Z,60.89
2017-04-06T07:08:08.000Z,59.01
2017-04-06T07:09:08.009Z,57.06
2017-04-06T07:10:08.014Z,55.55
2017-04-06T07:11:08.078Z,56.57
2017-04-06T07:12:08.087Z,57.12
2017-04-06T07:13:08.140Z,55.9
2017-04-06T07:14:08.144Z,55.26
2017-04-06T07:15:08.237Z,52.91
2017-04-06T07:16:08.218Z,52.58
2017-04-06T07:17:08.275Z,52.29
2017-04-06T07:18:08.336Z,53.3
2017-04-06T07:19:08.324Z,54.97
2017-04-06T07:20:08.404Z,54.68
2017-04-06T07:21:08.393Z,53.85
2017-04-06T07:22:08.421Z,53.2
2017-04-06T07:23:08.466Z,52.53
2017-04-06T07:24:08.530Z,51.98
2017-04-06T07:25:08.541Z,51.53
2017-04-06T07:26:08.984Z,50.46
2017-04-06T07:27:08.629Z,49.33
2017-04-06T07:28:08.629Z,49.65
2017-04-06T07:29:08.699Z,49.17
2017-04-06T07:30:08.736Z,48.33
2017-04-06T07:31:08.769Z,47.75
2017-04-06T07:32:08.776Z,48.49
2017-04-06T07:33:08.867Z,48.23
2017-04-06T07:34:08.902Z,47.67
2017-04-06T07:35:08.907Z,45.89
2017-04-06T07:36:08.921Z,45.31
2017-04-06T07:37:09.023Z,44.95
2017-04-06T07:38:08.994Z,44.78
2017-04-06T07:39:09.018Z,44.6
2017-04-06T07:40:09.093Z,43.74
2017-04-06T07:41:09.185Z,43.54
2017-04-06T07:42:09.139Z,44.46
2017-04-06T07:43:09.217Z,44.37
2017-04-06T07:44:09.267Z,44.18
2017-04-06T07:45:09.281Z,44.08
2017-04-06T07:46:09.341Z,43.45
2017-04-06T07:47:09.326Z,42.87
2017-04-06T07:48:09.423Z,42.21
2017-04-06T07:49:09.426Z,42.12
2017-04-06T07:50:09.472Z,41.44
2017-04-06T07:51:09.511Z,41.66
2017-04-06T07:52:09.575Z,41.67
2017-04-06T07:53:09.581Z,41.29
2017-04-06T07:54:09.623Z,41.29
2017-04-06T07:55:09.628Z,39.69
2017-04-06T07:56:09.701Z,39.57
2017-04-06T07:57:09.741Z,39.57
2017-04-06T07:58:09.777Z,39.67
2017-04-06T07:59:09.789Z,39.86
2017-04-06T08:00:09.845Z,39.95
2017-04-06T08:01:09.926Z,39.76
2017-04-06T08:02:09.933Z,39.03
2017-04-06T08:03:09.934Z,38.76
2017-04-06T08:04:10.007Z,38.07
2017-04-06T08:05:10.027Z,37.81
2017-04-06T08:06:10.120Z,37.61
2017-04-06T08:07:10.125Z,37.41
2017-04-06T08:08:10.132Z,37.49
2017-04-06T08:09:10.207Z,37.88
2017-04-06T08:10:10.244Z,37.69
2017-04-06T08:11:10.307Z,37.98
2017-04-06T08:12:10.322Z,38.17
2017-04-06T08:13:10.333Z,37.13
2017-04-06T08:14:10.429Z,36.66
2017-04-06T08:15:10.766Z,36.36
2017-04-06T08:16:10.455Z,36.19
2017-04-06T08:17:10.554Z,35.82
2017-04-06T08:18:10.564Z,34.75
2017-04-06T08:19:10.605Z,35.41
2017-04-06T08:20:11.002Z,35.33
2017-04-06T08:21:10.654Z,36
2017-04-06T08:22:10.749Z,36
2017-04-06T08:23:10.739Z,35.72
2017-04-06T08:24:10.784Z,35.05
2017-04-06T08:25:10.848Z,35.32
2017-04-06T08:26:10.892Z,35.72
2017-04-06T08:27:10.904Z,35.45
2017-04-06T08:28:10.966Z,34.98
2017-04-06T08:29:11.047Z,35.08
2017-04-06T08:30:11.053Z,34.52
2017-04-06T08:31:11.095Z,34.12
2017-04-06T08:32:11.161Z,33.83
2017-04-06T08:33:11.165Z,33.95
2017-04-06T08:34:11.432Z,33.95
2017-04-06T08:35:11.292Z,34.14
2017-04-06T08:36:11.280Z,33.75
2017-04-06T08:37:11.401Z,34.12
2017-04-06T08:38:11.390Z,34.42
2017-04-06T08:39:11.436Z,33.36
2017-04-06T08:40:11.446Z,33.85
2017-04-06T08:41:11.541Z,33.75
2017-04-06T08:42:11.628Z,33.18
2017-04-06T08:43:11.789Z,33.46
2017-04-06T08:44:11.668Z,33.65
2017-04-06T08:45:11.653Z,33.58
2017-04-06T08:46:11.762Z,33.18
2017-04-06T08:47:12.174Z,33.38
2017-04-06T08:48:11.837Z,32.99
2017-04-06T08:49:11.855Z,32.89
2017-04-06T08:50:11.879Z,32.31
2017-04-06T08:51:11.948Z,32.29
2017-04-06T08:52:11.957Z,32.49
2017-04-06T08:53:12.029Z,32.86
2017-04-06T08:54:12.051Z,33.06
2017-04-06T08:55:12.145Z,33.04
2017-04-06T08:56:12.155Z,33.17
2017-04-06T08:57:12.167Z,32.4
2017-04-06T08:58:12.269Z,32.5
2017-04-06T08:59:12.310Z,32.99
2017-04-06T09:00:12.349Z,32.89
2017-04-06T09:01:12.380Z,32.62
2017-04-06T09:02:12.419Z,32.53
2017-04-06T09:03:12.487Z,32.43
2017-04-06T09:04:12.464Z,31.67
2017-04-06T09:05:12.556Z,31.77
2017-04-06T09:06:12.666Z,32.43
2017-04-06T09:07:12.638Z,33.01
2017-04-06T09:08:12.659Z,31.95
2017-04-06T09:09:12.727Z,31.56
2017-04-06T09:10:12.854Z,31.37
2017-04-06T09:11:12.870Z,31.64
2017-04-06T09:12:12.854Z,32.31
2017-04-06T09:13:12.868Z,32.31
2017-04-06T09:14:12.966Z,32.31
2017-04-06T09:15:13.012Z,32.29
2017-04-06T09:16:13.049Z,32.59
2017-04-06T09:17:13.048Z,32.29
2017-04-06T09:18:13.095Z,31.73
2017-04-06T09:19:13.158Z,31.53
2017-04-06T09:20:13.170Z,31.92
2017-04-06T09:21:13.244Z,32.02
2017-04-06T09:22:13.288Z,31.74
2017-04-06T09:23:13.333Z,31.84
2017-04-06T09:24:13.393Z,30.7
2017-04-06T09:25:13.526Z,31.69
2017-04-06T09:26:13.467Z,31.1
2017-04-06T09:27:13.512Z,30.83
2017-04-06T09:28:13.581Z,30.44
2017-04-06T09:29:13.571Z,30.05
2017-04-06T09:30:14.022Z,30.35
2017-04-06T09:31:13.704Z,30.08
2017-04-06T09:32:13.735Z,29.5
2017-04-06T09:33:13.779Z,28.92
2017-04-06T09:34:13.845Z,28.82
2017-04-06T09:35:14.042Z,28.52
2017-04-06T09:36:13.925Z,29.47
2017-04-06T09:37:13.954Z,29.74
2017-04-06T09:38:14.010Z,30.02
2017-04-06T09:39:14.073Z,30.11
2017-04-06T09:40:14.067Z,30.11
2017-04-06T09:41:14.159Z,30.21
2017-04-06T09:42:14.150Z,29.92
2017-04-06T09:43:14.224Z,30.1
2017-04-06T09:44:14.273Z,29.91
2017-04-06T09:45:14.419Z,29.42
2017-04-06T09:46:14.361Z,30.1
2017-04-06T09:47:14.411Z,30
2017-04-06T09:48:14.428Z,29.81
2017-04-06T09:49:14.467Z,29.52
2017-04-06T09:50:14.703Z,29.82
2017-04-06T09:51:14.595Z,30.02
2017-04-06T09:52:14.659Z,29.74
2017-04-06T09:53:14.686Z,28.86
2017-04-06T09:54:14.730Z,28.88
2017-04-06T09:55:14.776Z,28.99
2017-04-06T09:56:14.795Z,28.79
2017-04-06T09:57:14.830Z,28.39
2017-04-06T09:58:14.920Z,28.09
2017-04-06T09:59:14.972Z,28.09
2017-04-06T10:00:14.967Z,28.49
2017-04-06T10:01:20.808Z,28.67
2017-04-06T10:02:15.111Z,28.78
2017-04-06T10:03:15.127Z,28.28
2017-04-06T10:04:15.173Z,27.9
2017-04-06T10:05:15.212Z,27.8
2017-04-06T10:06:15.624Z,27.41
2017-04-06T10:07:15.269Z,28.18
2017-04-06T10:08:15.375Z,28.38
2017-04-06T10:09:15.396Z,29.24
2017-04-06T10:10:15.441Z,28.94
2017-04-06T10:11:15.481Z,29.14
2017-04-06T10:12:15.676Z,29.63
2017-04-06T10:13:15.595Z,28.75
2017-04-06T10:14:15.583Z,28.75
2017-04-06T10:15:15.653Z,28.47
2017-04-06T10:16:15.681Z,28.75
2017-04-06T10:17:15.739Z,29.22
2017-04-06T10:18:15.782Z,29.42
2017-04-06T10:19:15.849Z,28.94
2017-04-06T10:20:15.846Z,29.24
2017-04-06T10:21:15.883Z,29.06
2017-04-06T10:22:15.993Z,28.28
2017-04-06T10:23:15.978Z,28.85
2017-04-06T10:24:16.035Z,29.5
2017-04-06T10:25:16.077Z,29.42
2017-04-06T10:26:16.095Z,29.53
2017-04-06T10:27:16.160Z,29.13
2017-04-06T10:28:16.200Z,29.58
2017-04-06T10:29:16.218Z,30.08
2017-04-06T10:30:16.287Z,30.74
2017-04-06T10:31:16.353Z,32.23
2017-04-06T10:32:16.392Z,33.92
2017-04-06T10:33:16.406Z,35.04
2017-04-06T10:34:16.477Z,35.2
2017-04-06T10:35:16.488Z,33.95
2017-04-06T10:36:16.779Z,33.04
2017-04-06T10:37:16.593Z,32.96
2017-04-06T10:38:16.573Z,33.7
2017-04-06T10:39:16.636Z,34.42
2017-04-06T10:40:16.696Z,35.24
2017-04-06T10:41:16.802Z,36.83
2017-04-06T10:42:16.766Z,38.6
2017-04-06T10:43:16.786Z,39.62
2017-04-06T10:44:16.866Z,38.87
2017-04-06T10:45:16.882Z,36.81
2017-04-06T10:46:16.893Z,35.42
2017-04-06T10:47:16.964Z,34.89
2017-04-06T10:48:16.994Z,33.94
2017-04-06T10:49:17.022Z,32.82
2017-04-06T10:50:17.095Z,32.17
2017-04-06T10:51:17.073Z,31.02
2017-04-06T10:52:17.142Z,30.19
2017-04-06T10:53:17.178Z,29.25
2017-04-06T10:54:17.193Z,28.78
2017-04-06T10:55:17.380Z,28.88
2017-04-06T10:56:17.320Z,28.97
2017-04-06T10:57:17.308Z,28.86
2017-04-06T10:58:17.373Z,29.35
2017-04-06T10:59:17.374Z,30.02
2017-04-06T11:00:17.439Z,30.92
2017-04-06T11:01:17.472Z,31.57
2017-04-06T11:02:17.519Z,31.57
2017-04-06T11:03:17.588Z,33.28
2017-04-06T11:04:17.591Z,33.92
2017-04-06T11:05:17.600Z,33.81
2017-04-06T11:06:17.634Z,33.65
2017-04-06T11:07:17.696Z,32.89
2017-04-06T11:08:17.751Z,32.31
2017-04-06T11:09:17.775Z,31.76
2017-04-06T11:10:17.818Z,32.15
2017-04-06T11:11:17.849Z,32.51
2017-04-06T11:12:17.877Z,32.68
2017-04-06T11:13:17.885Z,33.63
2017-04-06T11:14:18.153Z,34.47
2017-04-06T11:15:18.019Z,34.55
2017-04-06T11:16:18.020Z,34.86
2017-04-06T11:17:18.084Z,35.42
2017-04-06T11:18:18.076Z,36.81
2017-04-06T11:19:18.135Z,37.29
2017-04-06T11:20:18.146Z,35.96
2017-04-06T11:21:18.202Z,34.66
2017-04-06T11:22:18.239Z,34.12
2017-04-06T11:23:18.264Z,33.28
2017-04-06T11:24:18.283Z,32.92
2017-04-06T11:25:18.329Z,34.05
2017-04-06T11:26:18.385Z,34.68
2017-04-06T11:27:18.396Z,35.96
2017-04-06T11:28:18.485Z,36.97
2017-04-06T11:29:18.532Z,36.41
2017-04-06T11:30:18.616Z,35.38
2017-04-06T11:31:18.527Z,35.65
2017-04-06T11:32:18.589Z,35.75
2017-04-06T11:33:18.602Z,36.58
2017-04-06T11:34:18.862Z,37.14
2017-04-06T11:35:18.759Z,38.09
2017-04-06T11:36:18.698Z,37.87
2017-04-06T11:37:18.761Z,38.62
2017-04-06T11:38:18.816Z,39.76
2017-04-06T11:39:18.832Z,41.16
2017-04-06T11:40:18.838Z,42.29
2017-04-06T11:41:18.872Z,42.29
2017-04-06T11:42:18.961Z,42.02
2017-04-06T11:43:19.208Z,42.3
2017-04-06T11:44:18.969Z,42.3
2017-04-06T11:45:19.046Z,41.17
2017-04-06T11:46:19.073Z,39.79
2017-04-06T11:47:19.090Z,39.51
2017-04-06T11:48:19.137Z,39.78
2017-04-06T11:49:19.226Z,40.52
2017-04-06T11:50:19.176Z,40.45
2017-04-06T11:51:19.227Z,40.35
2017-04-06T11:52:19.272Z,40.52
2017-04-06T11:53:19.282Z,40.89
2017-04-06T11:54:19.347Z,41.93
2017-04-06T11:55:19.409Z,43.24
2017-04-06T11:56:19.390Z,44.66
2017-04-06T11:57:19.475Z,45.59
2017-04-06T11:58:19.476Z,45.57
2017-04-06T11:59:19.480Z,46.34
2017-04-06T12:00:19.540Z,47.49
2017-04-06T12:01:19.790Z,47.2
2017-04-06T12:02:19.589Z,46.62
2017-04-06T12:03:19.641Z,46.8
2017-04-06T12:04:19.717Z,46.89
2017-04-06T12:05:19.722Z,47.66
2017-04-06T12:06:19.754Z,47.73
2017-04-06T12:07:19.797Z,48.39
2017-04-06T12:08:20.100Z,48.09
2017-04-06T12:09:19.855Z,48.47
2017-04-06T12:10:20.287Z,49.14
2017-04-06T12:11:19.969Z,50.07
2017-04-06T12:12:19.950Z,50.55
2017-04-06T12:13:19.995Z,50.45
2017-04-06T12:14:20.134Z,50.07
2017-04-06T12:15:20.101Z,50.16
2017-04-06T12:16:20.088Z,50.16
2017-04-06T12:17:20.103Z,50.45
2017-04-06T12:18:20.158Z,50.35
2017-04-06T12:19:20.229Z,50.45
2017-04-06T12:20:20.229Z,50.52
2017-04-06T12:21:20.261Z,50.81
2017-04-06T12:22:20.320Z,51.21
2017-04-06T12:23:20.347Z,51.12
2017-04-06T12:24:20.339Z,50.67
2017-04-06T12:25:20.388Z,50.09
2017-04-06T12:26:20.421Z,50.09
2017-04-06T12:27:20.476Z,49.8
2017-04-06T12:28:20.518Z,48.97
2017-04-06T12:29:20.504Z,48.39
2017-04-06T12:30:20.562Z,48.11
2017-04-06T12:31:20.593Z,48.23
2017-04-06T12:32:20.625Z,48.68
2017-04-06T12:33:20.720Z,48.59
2017-04-06T12:34:20.686Z,49.07
2017-04-06T12:35:20.761Z,48.88
2017-04-06T12:36:20.764Z,49.07
2017-04-06T12:37:20.789Z,49.07
2017-04-06T12:38:20.811Z,48.78
2017-04-06T12:39:20.893Z,48.59
2017-04-06T12:40:20.892Z,48.49
2017-04-06T12:41:20.936Z,48.49
2017-04-06T12:42:20.942Z,48.59
2017-04-06T12:43:20.998Z,48.97
2017-04-06T12:44:21.032Z,48.21
2017-04-06T12:45:21.059Z,48.02
2017-04-06T12:46:21.102Z,48.68
2017-04-06T12:47:21.135Z,48.57
2017-04-06T12:48:21.170Z,48.66
2017-04-06T12:49:21.230Z,49.11
2017-04-06T12:50:21.360Z,49.78
2017-04-06T12:51:21.264Z,50.45
2017-04-06T12:52:21.278Z,50.74
2017-04-06T12:53:21.359Z,51.41
2017-04-06T12:54:21.395Z,51.03
2017-04-06T12:55:21.383Z,51.03